Time;durP1;ratioP1;P1;durP2;ratioP2;P2;SDS_P1;SDS_P2;PMS_P1;PMS_P2;Temp;Humidity;BMP_temperature;BMP_pressure;BME280_temperature;BME280_humidity;BME280_pressure;Samples;Min_cycle;Max_cycle;Signal;HPM_P1;HPM_P2
2023/04/28 00:01:46;;;;;;;;;6.00;6.00;;;;;-147.17;100.00;-15917.19;4950470;28;57694;-32
2023/04/28 00:04:12;;;;;;;;;5.33;5.33;;;;;-147.17;100.00;-15917.19;4951528;28;51058;-30
2023/04/28 00:06:37;;;;;;;;;5.00;4.00;;;;;-147.17;100.00;-15917.19;4952176;28;51062;-32
2023/04/28 00:09:02;;;;;;;;;4.33;4.33;;;;;-147.17;100.00;-15917.19;4951186;28;50963;-32
2023/04/28 00:11:28;;;;;;;;;5.00;5.00;;;;;-147.17;100.00;-15917.19;4950602;28;51208;-34
2023/04/28 00:13:53;;;;;;;;;3.67;3.67;;;;;-147.17;100.00;-15917.19;4953104;28;50884;-33
2023/04/28 00:16:18;;;;;;;;;5.00;5.00;;;;;-147.17;100.00;-15917.19;4940786;28;53235;-33
2023/04/28 00:18:44;;;;;;;;;5.00;5.00;;;;;-147.17;100.00;-15917.19;4941833;28;50899;-32
2023/04/28 00:21:09;;;;;;;;;4.67;4.67;;;;;-147.17;100.00;-15917.19;4950334;28;51777;-34
2023/04/28 00:23:35;;;;;;;;;4.00;4.00;;;;;-147.17;100.00;-15917.19;4950732;28;51007;-33
2023/04/28 00:26:00;;;;;;;;;4.00;4.00;;;;;-147.17;100.00;-15917.19;4952360;28;52720;-32
2023/04/28 00:28:26;;;;;;;;;4.00;4.00;;;;;-147.17;100.00;-15917.19;4949725;28;50925;-32
2023/04/28 00:30:51;;;;;;;;;6.00;5.00;;;;;-147.17;100.00;-15917.19;4951917;28;51257;-31
2023/04/28 00:33:16;;;;;;;;;6.00;6.00;;;;;-147.17;100.00;-15917.19;4951906;28;50994;-34
2023/04/28 00:35:42;;;;;;;;;4.00;4.00;;;;;-147.17;100.00;-15917.19;4949936;28;51531;-33
2023/04/28 00:38:07;;;;;;;;;4.00;3.67;;;;;-147.17;100.00;-15917.19;4951786;28;51185;-32
2023/04/28 00:40:37;;;;;;;;;4.00;4.00;;;;;-147.17;100.00;-15917.19;4950520;28;50883;-33
2023/04/28 00:43:03;;;;;;;;;4.00;4.00;;;;;-147.17;100.00;-15917.19;4951538;28;51033;-31
2023/04/28 00:45:28;;;;;;;;;4.67;4.00;;;;;-147.17;100.00;-15917.19;4950439;28;52304;-32
2023/04/28 00:47:55;;;;;;;;;4.00;4.00;;;;;-147.17;100.00;-15917.19;4952475;28;50914;-33
2023/04/28 00:50:22;;;;;;;;;4.33;4.33;;;;;-147.17;100.00;-15917.19;4954175;28;51190;-31
2023/04/28 00:52:47;;;;;;;;;7.00;4.67;;;;;-147.17;100.00;-15917.19;4954351;28;51206;-31
2023/04/28 00:55:15;;;;;;;;;3.00;3.00;;;;;-147.17;100.00;-15917.19;4953666;28;58605;-32
2023/04/28 00:57:41;;;;;;;;;4.00;4.00;;;;;-147.17;100.00;-15917.19;4954109;28;51202;-30
2023/04/28 01:00:07;;;;;;;;;5.00;5.00;;;;;-147.17;100.00;-15917.19;4953808;28;51226;-32
2023/04/28 01:02:34;;;;;;;;;2.00;1.00;;;;;-147.17;100.00;-15917.19;4955603;28;51046;-31
2023/04/28 01:05:01;;;;;;;;;2.33;2.33;;;;;-147.17;100.00;-15917.19;4953560;28;51041;-31
2023/04/28 01:07:26;;;;;;;;;4.00;4.00;;;;;-147.17;100.00;-15917.19;4955189;28;51012;-33
2023/04/28 01:09:51;;;;;;;;;4.00;3.67;;;;;-147.17;100.00;-15917.19;4954967;28;51164;-31
2023/04/28 01:12:17;;;;;;;;;4.33;4.00;;;;;-147.17;100.00;-15917.19;4942621;28;51368;-31
2023/04/28 01:14:42;;;;;;;;;3.00;2.67;;;;;-147.17;100.00;-15917.19;4954604;28;52112;-34
2023/04/28 01:17:09;;;;;;;;;4.00;3.00;;;;;-147.17;100.00;-15917.19;4954786;28;51090;-32
2023/04/28 01:19:34;;;;;;;;;5.33;5.33;;;;;-147.17;100.00;-15917.19;4954035;28;51177;-33
2023/04/28 01:22:00;;;;;;;;;4.00;3.33;;;;;-147.17;100.00;-15917.19;4954717;28;50991;-31
2023/04/28 01:24:25;;;;;;;;;3.00;3.00;;;;;-147.17;100.00;-15917.19;4954166;28;51836;-32
2023/04/28 01:26:50;;;;;;;;;4.33;4.33;;;;;-147.17;100.00;-15917.19;4954379;28;51178;-31
2023/04/28 01:29:16;;;;;;;;;3.67;3.67;;;;;-147.17;100.00;-15917.19;4954759;28;51516;-32
2023/04/28 01:31:41;;;;;;;;;4.00;4.00;;;;;-147.17;100.00;-15917.19;4950469;28;51193;-32
2023/04/28 01:34:06;;;;;;;;;3.00;3.00;;;;;-147.17;100.00;-15917.19;4953297;28;57663;-36
2023/04/28 01:36:32;;;;;;;;;4.00;4.00;;;;;-147.17;100.00;-15917.19;4952407;28;51120;-31
2023/04/28 01:38:58;;;;;;;;;4.00;3.67;;;;;-147.17;100.00;-15917.19;4954339;28;51102;-32
2023/04/28 01:41:23;;;;;;;;;4.33;2.67;;;;;-147.17;100.00;-15917.19;4954067;28;51358;-32
2023/04/28 01:43:48;;;;;;;;;4.00;3.33;;;;;-147.17;100.00;-15917.19;4953689;28;52428;-35
2023/04/28 01:46:14;;;;;;;;;4.67;4.67;;;;;-147.17;100.00;-15917.19;4952834;28;53985;-35
2023/04/28 01:48:39;;;;;;;;;4.00;4.00;;;;;-147.17;100.00;-15917.19;4953000;28;51566;-32
2023/04/28 01:51:04;;;;;;;;;4.00;4.00;;;;;-147.17;100.00;-15917.19;4961387;28;51379;-32
2023/04/28 01:53:30;;;;;;;;;4.00;4.00;;;;;-147.17;100.00;-15917.19;4942170;28;52811;-32
2023/04/28 01:55:57;;;;;;;;;3.33;3.33;;;;;-147.17;100.00;-15917.19;4951043;28;57832;-31
2023/04/28 01:58:22;;;;;;;;;2.00;2.00;;;;;-147.17;100.00;-15917.19;4935623;28;51137;-32
2023/04/28 02:00:48;;;;;;;;;4.33;3.00;;;;;-147.17;100.00;-15917.19;4953158;28;51447;-33
2023/04/28 02:03:13;;;;;;;;;2.33;2.33;;;;;-147.17;100.00;-15917.19;4955256;28;51800;-32
2023/04/28 02:05:38;;;;;;;;;3.67;3.00;;;;;-147.17;100.00;-15917.19;4952905;28;51064;-34
2023/04/28 02:08:04;;;;;;;;;3.00;2.67;;;;;-147.17;100.00;-15917.19;4954371;28;51129;-35
2023/04/28 02:10:29;;;;;;;;;5.00;4.00;;;;;-147.17;100.00;-15917.19;4954196;28;51137;-31
2023/04/28 02:12:54;;;;;;;;;4.00;4.00;;;;;-147.17;100.00;-15917.19;4952726;28;53641;-32
2023/04/28 02:15:20;;;;;;;;;4.00;4.00;;;;;-147.17;100.00;-15917.19;4954190;28;51088;-31
2023/04/28 02:17:46;;;;;;;;;5.00;5.00;;;;;-147.17;100.00;-15917.19;4953784;28;51344;-32
2023/04/28 02:20:13;;;;;;;;;3.00;3.00;;;;;-147.17;100.00;-15917.19;4950249;28;51102;-32
2023/04/28 02:22:38;;;;;;;;;3.00;3.00;;;;;-147.17;100.00;-15917.19;4951922;28;52835;-32
2023/04/28 02:25:04;;;;;;;;;4.00;4.00;;;;;-147.17;100.00;-15917.19;4952773;28;51071;-31
2023/04/28 02:27:29;;;;;;;;;3.00;3.00;;;;;-147.17;100.00;-15917.19;4953478;28;50911;-35
2023/04/28 02:29:54;;;;;;;;;3.67;3.00;;;;;-147.17;100.00;-15917.19;4953194;28;51320;-32
2023/04/28 02:32:20;;;;;;;;;3.33;3.00;;;;;-147.17;100.00;-15917.19;4951967;28;68679;-31
2023/04/28 02:34:46;;;;;;;;;2.67;2.67;;;;;-147.17;100.00;-15917.19;4950806;28;50991;-33
2023/04/28 02:37:11;;;;;;;;;3.00;3.00;;;;;-147.17;100.00;-15917.19;4951837;28;51179;-33
2023/04/28 02:39:36;;;;;;;;;3.00;3.00;;;;;-147.17;100.00;-15917.19;4953235;28;51084;-32
2023/04/28 02:42:02;;;;;;;;;2.67;2.67;;;;;-147.17;100.00;-15917.19;4952369;28;51959;-33
2023/04/28 02:44:27;;;;;;;;;3.00;3.00;;;;;-147.17;100.00;-15917.19;4936254;28;51041;-33
2023/04/28 02:46:53;;;;;;;;;4.00;3.00;;;;;-147.17;100.00;-15917.19;4947203;28;55057;-31
2023/04/28 02:49:18;;;;;;;;;4.00;3.33;;;;;-147.17;100.00;-15917.19;4953021;28;51138;-32
2023/04/28 02:51:43;;;;;;;;;3.33;3.33;;;;;-147.17;100.00;-15917.19;4950705;28;63697;-32
2023/04/28 02:54:09;;;;;;;;;3.33;3.33;;;;;-147.17;100.00;-15917.19;4937234;28;51220;-32
2023/04/28 02:56:35;;;;;;;;;2.00;2.00;;;;;-147.17;100.00;-15917.19;4951230;28;52738;-33
2023/04/28 02:59:01;;;;;;;;;2.33;2.33;;;;;-147.17;100.00;-15917.19;4952028;28;51179;-32
2023/04/28 03:01:26;;;;;;;;;4.00;4.00;;;;;-147.17;100.00;-15917.19;4951962;28;52753;-31
2023/04/28 03:03:51;;;;;;;;;3.33;3.00;;;;;-147.17;100.00;-15917.19;4952980;28;51037;-31
2023/04/28 03:06:17;;;;;;;;;3.00;3.00;;;;;-147.17;100.00;-15917.19;4951576;28;57313;-30
2023/04/28 03:08:42;;;;;;;;;3.00;2.33;;;;;-147.17;100.00;-15917.19;4950142;28;51224;-34
2023/04/28 03:11:07;;;;;;;;;3.00;3.00;;;;;-147.17;100.00;-15917.19;4951617;28;61927;-29
2023/04/28 03:13:34;;;;;;;;;2.67;2.00;;;;;-147.17;100.00;-15917.19;4952678;28;53777;-31
2023/04/28 03:16:00;;;;;;;;;4.67;4.00;;;;;-147.17;100.00;-15917.19;4952023;28;51121;-33
2023/04/28 03:18:25;;;;;;;;;2.33;2.00;;;;;-147.17;100.00;-15917.19;4952595;28;52635;-31
2023/04/28 03:20:50;;;;;;;;;1.67;1.67;;;;;-147.17;100.00;-15917.19;4951558;28;52680;-34
2023/04/28 03:23:16;;;;;;;;;3.00;2.67;;;;;-147.17;100.00;-15917.19;4952181;28;51244;-35
2023/04/28 03:25:41;;;;;;;;;4.00;3.00;;;;;-147.17;100.00;-15917.19;4939529;28;51124;-32
2023/04/28 03:28:06;;;;;;;;;3.67;3.67;;;;;-147.17;100.00;-15917.19;4936301;28;51397;-31
2023/04/28 03:30:32;;;;;;;;;2.67;2.67;;;;;-147.17;100.00;-15917.19;4949293;28;51805;-31
2023/04/28 03:32:57;;;;;;;;;3.00;3.00;;;;;-147.17;100.00;-15917.19;4952777;28;51098;-32
2023/04/28 03:35:23;;;;;;;;;3.00;3.00;;;;;-147.17;100.00;-15917.19;4952493;28;51042;-36
2023/04/28 03:37:48;;;;;;;;;3.00;3.00;;;;;-147.17;100.00;-15917.19;4953783;28;51101;-33
2023/04/28 03:40:14;;;;;;;;;3.00;3.00;;;;;-147.17;100.00;-15917.19;4950953;28;51585;-35
2023/04/28 03:42:39;;;;;;;;;2.67;2.67;;;;;-147.17;100.00;-15917.19;4952367;28;51157;-32
2023/04/28 03:45:05;;;;;;;;;3.00;3.00;;;;;-147.17;100.00;-15917.19;4952944;28;51507;-33
2023/04/28 03:47:30;;;;;;;;;2.33;2.33;;;;;-147.17;100.00;-15917.19;4953627;28;51327;-34
2023/04/28 03:49:57;;;;;;;;;2.00;2.00;;;;;-147.17;100.00;-15917.19;4951858;28;51132;-36
2023/04/28 03:52:23;;;;;;;;;2.00;2.00;;;;;-147.17;100.00;-15917.19;4951213;28;51017;-33
2023/04/28 03:54:48;;;;;;;;;1.00;1.00;;;;;-147.17;100.00;-15917.19;4951795;28;51074;-33
2023/04/28 03:57:13;;;;;;;;;1.67;1.67;;;;;-147.17;100.00;-15917.19;4952666;28;50907;-31
2023/04/28 03:59:39;;;;;;;;;2.00;2.00;;;;;-147.17;100.00;-15917.19;4950888;28;51726;-32
2023/04/28 04:02:04;;;;;;;;;2.33;2.33;;;;;-147.17;100.00;-15917.19;4952066;28;50907;-36
2023/04/28 04:04:29;;;;;;;;;1.33;1.33;;;;;-147.17;100.00;-15917.19;4951577;28;51427;-34
2023/04/28 04:06:55;;;;;;;;;2.67;2.67;;;;;-147.17;100.00;-15917.19;4952004;28;51904;-34
2023/04/28 04:09:20;;;;;;;;;2.00;2.00;;;;;-147.17;100.00;-15917.19;4951407;28;51403;-32
2023/04/28 04:11:45;;;;;;;;;3.00;3.00;;;;;-147.17;100.00;-15917.19;4951740;28;51743;-34
2023/04/28 04:14:11;;;;;;;;;2.33;2.33;;;;;-147.17;100.00;-15917.19;4950461;28;51328;-31
2023/04/28 04:16:36;;;;;;;;;2.00;2.00;;;;;-147.17;100.00;-15917.19;4950714;28;51190;-34
2023/04/28 04:19:01;;;;;;;;;3.00;3.00;;;;;-147.17;100.00;-15917.19;4951233;28;51911;-33
2023/04/28 04:21:27;;;;;;;;;2.33;2.33;;;;;-147.17;100.00;-15917.19;4947240;28;51168;-34
2023/04/28 04:23:52;;;;;;;;;3.33;3.00;;;;;-147.17;100.00;-15917.19;4950750;28;51273;-32
2023/04/28 04:26:18;;;;;;;;;2.00;2.00;;;;;-147.17;100.00;-15917.19;4951588;28;51456;-31
2023/04/28 04:28:43;;;;;;;;;3.00;2.67;;;;;-147.17;100.00;-15917.19;4950121;28;51686;-35
2023/04/28 04:31:08;;;;;;;;;3.00;3.00;;;;;-147.17;100.00;-15917.19;4951073;28;51107;-33
2023/04/28 04:33:34;;;;;;;;;2.00;2.00;;;;;-147.17;100.00;-15917.19;4951351;28;51095;-31
2023/04/28 04:35:59;;;;;;;;;2.00;2.00;;;;;-147.17;100.00;-15917.19;4946663;28;51234;-32
2023/04/28 04:38:24;;;;;;;;;3.33;2.00;;;;;-147.17;100.00;-15917.19;4938050;28;51730;-32
2023/04/28 04:40:50;;;;;;;;;2.00;2.00;;;;;-147.17;100.00;-15917.19;4950361;28;51273;-30
2023/04/28 04:43:15;;;;;;;;;3.33;3.00;;;;;-147.17;100.00;-15917.19;4951868;28;51212;-31
2023/04/28 04:45:41;;;;;;;;;2.00;2.00;;;;;-147.17;100.00;-15917.19;4951402;28;51124;-30
2023/04/28 04:48:06;;;;;;;;;2.00;2.00;;;;;-147.17;100.00;-15917.19;4951006;28;62113;-33
2023/04/28 04:50:31;;;;;;;;;2.00;2.00;;;;;-147.17;100.00;-15917.19;4951065;28;51029;-32
2023/04/28 04:52:57;;;;;;;;;2.00;2.00;;;;;-147.17;100.00;-15917.19;4951100;28;51076;-31
2023/04/28 04:55:22;;;;;;;;;2.00;2.00;;;;;-147.17;100.00;-15917.19;4949925;28;51245;-33
2023/04/28 04:57:47;;;;;;;;;2.00;2.00;;;;;-147.17;100.00;-15917.19;4951483;28;51013;-33
2023/04/28 05:00:14;;;;;;;;;2.00;2.00;;;;;-147.17;100.00;-15917.19;4950012;28;51380;-33
2023/04/28 05:02:39;;;;;;;;;2.33;2.33;;;;;-147.17;100.00;-15917.19;4951339;28;50967;-31
2023/04/28 05:05:05;;;;;;;;;1.00;1.00;;;;;-147.17;100.00;-15917.19;4950345;28;51145;-33
2023/04/28 05:07:31;;;;;;;;;2.00;2.00;;;;;-147.17;100.00;-15917.19;4951136;28;52170;-31
2023/04/28 05:09:56;;;;;;;;;1.00;1.00;;;;;-147.17;100.00;-15917.19;4949867;28;51014;-31
2023/04/28 05:12:21;;;;;;;;;2.00;2.00;;;;;-147.17;100.00;-15917.19;4949289;28;55974;-30
2023/04/28 05:14:47;;;;;;;;;1.00;1.00;;;;;-147.17;100.00;-15917.19;4951003;28;51138;-32
2023/04/28 05:17:12;;;;;;;;;1.67;1.67;;;;;-147.17;100.00;-15917.19;4950198;28;58907;-34
2023/04/28 05:19:37;;;;;;;;;3.00;2.00;;;;;-147.17;100.00;-15917.19;4950901;28;51204;-32
2023/04/28 05:22:03;;;;;;;;;3.00;2.00;;;;;-147.17;100.00;-15917.19;4949211;28;51236;-31
2023/04/28 05:24:28;;;;;;;;;1.67;1.67;;;;;-147.17;100.00;-15917.19;4940547;28;50998;-29
2023/04/28 05:26:57;;;;;;;;;1.00;1.00;;;;;-147.17;100.00;-15917.19;4933257;28;54172;-32
2023/04/28 05:29:23;;;;;;;;;1.33;1.33;;;;;-147.17;100.00;-15917.19;4951167;28;51120;-35
2023/04/28 05:31:48;;;;;;;;;1.00;1.00;;;;;-147.17;100.00;-15917.19;4948765;28;51506;-29
2023/04/28 05:34:13;;;;;;;;;1.33;1.33;;;;;-147.17;100.00;-15917.19;4950913;28;51191;-33
2023/04/28 05:36:39;;;;;;;;;2.00;2.00;;;;;-147.17;100.00;-15917.19;4953653;28;58386;-33
2023/04/28 05:39:04;;;;;;;;;2.00;1.00;;;;;-147.17;100.00;-15917.19;4953511;28;50888;-34
2023/04/28 05:41:29;;;;;;;;;2.00;2.00;;;;;-147.17;100.00;-15917.19;4953628;28;51086;-31
2023/04/28 05:43:55;;;;;;;;;1.67;1.67;;;;;-147.17;100.00;-15917.19;4952794;28;51030;-32
2023/04/28 05:46:20;;;;;;;;;2.00;2.00;;;;;-147.17;100.00;-15917.19;4953263;28;51755;-33
2023/04/28 05:48:45;;;;;;;;;1.00;1.00;;;;;-147.17;100.00;-15917.19;4953745;28;54350;-34
2023/04/28 05:51:11;;;;;;;;;2.00;2.00;;;;;-147.17;100.00;-15917.19;4954234;28;51119;-33
2023/04/28 05:53:36;;;;;;;;;2.00;2.00;;;;;-147.17;100.00;-15917.19;4951566;28;51227;-31
2023/04/28 05:56:02;;;;;;;;;2.00;2.00;;;;;-147.17;100.00;-15917.19;4953094;28;51985;-31
2023/04/28 05:58:28;;;;;;;;;2.00;2.00;;;;;-147.17;100.00;-15917.19;4942954;28;51141;-33
2023/04/28 06:00:53;;;;;;;;;1.67;1.67;;;;;-147.17;100.00;-15917.19;4937703;28;50998;-32
2023/04/28 06:03:19;;;;;;;;;1.00;1.00;;;;;-147.17;100.00;-15917.19;4952292;28;50999;-31
2023/04/28 06:05:44;;;;;;;;;1.67;1.00;;;;;-147.17;100.00;-15917.19;4953665;28;51739;-31
2023/04/28 06:08:10;;;;;;;;;1.33;1.33;;;;;-147.17;100.00;-15917.19;4953687;28;51020;-33
2023/04/28 06:10:35;;;;;;;;;2.00;2.00;;;;;-147.17;100.00;-15917.19;4951503;28;51097;-31
2023/04/28 06:13:03;;;;;;;;;1.33;1.33;;;;;-147.17;100.00;-15917.19;4952127;28;51027;-33
2023/04/28 06:15:29;;;;;;;;;2.00;2.00;;;;;-147.17;100.00;-15917.19;4952039;28;51833;-31
2023/04/28 06:17:54;;;;;;;;;3.00;2.00;;;;;-147.17;100.00;-15917.19;4950582;28;51128;-32
2023/04/28 06:20:20;;;;;;;;;4.67;3.33;;;;;-147.17;100.00;-15917.19;4947368;28;50900;-32
2023/04/28 06:22:45;;;;;;;;;4.00;3.00;;;;;-147.17;100.00;-15917.19;4953802;28;50987;-32
2023/04/28 06:25:10;;;;;;;;;4.67;3.33;;;;;-147.17;100.00;-15917.19;4935276;28;63003;-31
2023/04/28 06:27:36;;;;;;;;;4.00;4.00;;;;;-147.17;100.00;-15917.19;4953057;28;51752;-32
2023/04/28 06:30:01;;;;;;;;;3.67;3.33;;;;;-147.17;100.00;-15917.19;4946772;28;51275;-32
2023/04/28 06:32:26;;;;;;;;;3.33;3.00;;;;;-147.17;100.00;-15917.19;4951646;28;51057;-29
2023/04/28 06:34:52;;;;;;;;;3.00;2.00;;;;;-147.17;100.00;-15917.19;4937931;28;53519;-32
2023/04/28 06:37:17;;;;;;;;;4.00;4.00;;;;;-147.17;100.00;-15917.19;4952528;28;51271;-31
2023/04/28 06:39:43;;;;;;;;;3.67;2.67;;;;;-147.17;100.00;-15917.19;4936008;28;51162;-32
2023/04/28 06:42:08;;;;;;;;;2.33;2.00;;;;;-147.17;100.00;-15917.19;4952866;28;51218;-31
2023/04/28 06:44:33;;;;;;;;;2.00;2.00;;;;;-147.17;100.00;-15917.19;4952546;28;51903;-33
2023/04/28 06:46:59;;;;;;;;;3.00;2.33;;;;;-147.17;100.00;-15917.19;4951307;28;56123;-32
2023/04/28 06:49:24;;;;;;;;;3.00;2.67;;;;;-147.17;100.00;-15917.19;4952697;28;51038;-31
2023/04/28 06:51:50;;;;;;;;;3.67;2.33;;;;;-147.17;100.00;-15917.19;4953033;28;51070;-32
2023/04/28 06:54:15;;;;;;;;;2.67;2.00;;;;;-147.17;100.00;-15917.19;4952862;28;51969;-32
2023/04/28 06:56:41;;;;;;;;;2.67;2.00;;;;;-147.17;100.00;-15917.19;4934944;28;51082;-33
2023/04/28 06:59:07;;;;;;;;;2.33;2.33;;;;;-147.17;100.00;-15917.19;4953018;28;51077;-33
2023/04/28 07:01:32;;;;;;;;;4.33;4.00;;;;;-147.17;100.00;-15917.19;4935723;28;51343;-32
2023/04/28 07:03:57;;;;;;;;;5.00;5.00;;;;;-147.17;100.00;-15917.19;4952518;28;51833;-34
2023/04/28 07:06:23;;;;;;;;;5.67;4.00;;;;;-147.17;100.00;-15917.19;4935421;28;50994;-32
2023/04/28 07:08:48;;;;;;;;;5.67;5.00;;;;;-147.17;100.00;-15917.19;4952948;28;50888;-33
2023/04/28 07:11:14;;;;;;;;;4.67;4.00;;;;;-147.17;100.00;-15917.19;4953392;28;50938;-31
2023/04/28 07:13:39;;;;;;;;;5.33;5.33;;;;;-147.17;100.00;-15917.19;4953120;28;52664;-34
2023/04/28 07:16:05;;;;;;;;;8.67;5.00;;;;;-147.17;100.00;-15917.19;4952633;28;52258;-35
2023/04/28 07:18:30;;;;;;;;;7.67;7.00;;;;;-147.17;100.00;-15917.19;4952884;28;50887;-31
2023/04/28 07:20:55;;;;;;;;;6.33;6.00;;;;;-147.17;100.00;-15917.19;4953184;28;51191;-34
2023/04/28 07:23:21;;;;;;;;;8.33;7.67;;;;;-147.17;100.00;-15917.19;4952427;28;51893;-33
2023/04/28 07:25:46;;;;;;;;;5.33;5.33;;;;;-147.17;100.00;-15917.19;4952675;28;52420;-32
2023/04/28 07:28:12;;;;;;;;;7.00;6.00;;;;;-147.17;100.00;-15917.19;4952584;28;51111;-34
2023/04/28 07:30:38;;;;;;;;;7.67;7.00;;;;;-147.17;100.00;-15917.19;4952750;28;51350;-32
2023/04/28 07:33:03;;;;;;;;;7.67;6.67;;;;;-147.17;100.00;-15917.19;4952279;28;51811;-30
2023/04/28 07:35:29;;;;;;;;;7.67;7.33;;;;;-147.17;100.00;-15917.19;4952173;28;51189;-34
2023/04/28 07:37:54;;;;;;;;;6.67;6.67;;;;;-147.17;100.00;-15917.19;4952898;28;51021;-31
2023/04/28 07:40:20;;;;;;;;;9.00;7.00;;;;;-147.17;100.00;-15917.19;4952592;28;51380;-31
2023/04/28 07:42:46;;;;;;;;;6.00;6.00;;;;;-147.17;100.00;-15917.19;4952048;28;51105;-32
2023/04/28 07:45:13;;;;;;;;;7.33;6.67;;;;;-147.17;100.00;-15917.19;4952375;28;51018;-33
2023/04/28 07:47:38;;;;;;;;;6.00;6.00;;;;;-147.17;100.00;-15917.19;4952594;28;50991;-34
2023/04/28 07:50:05;;;;;;;;;5.33;5.33;;;;;-147.17;100.00;-15917.19;4952668;28;51190;-35
2023/04/28 07:52:33;;;;;;;;;6.67;6.00;;;;;-147.17;100.00;-15917.19;4952056;28;52949;-35
2023/04/28 07:54:59;;;;;;;;;6.33;6.33;;;;;-147.17;100.00;-15917.19;4952178;28;51014;-34
2023/04/28 07:57:25;;;;;;;;;7.67;7.00;;;;;-147.17;100.00;-15917.19;4951492;28;51222;-34
2023/04/28 07:59:51;;;;;;;;;8.67;7.00;;;;;-147.17;100.00;-15917.19;4952657;28;50939;-33
2023/04/28 08:02:18;;;;;;;;;6.00;6.00;;;;;-147.17;100.00;-15917.19;4952461;28;51988;-33
2023/04/28 08:04:43;;;;;;;;;4.00;4.00;;;;;-147.17;100.00;-15917.19;4952097;28;51176;-33
2023/04/28 08:07:09;;;;;;;;;4.67;4.33;;;;;-147.17;100.00;-15917.19;4952249;28;50975;-32
2023/04/28 08:09:35;;;;;;;;;4.00;4.00;;;;;-147.17;100.00;-15917.19;4952670;28;51383;-31
2023/04/28 08:12:01;;;;;;;;;5.00;5.00;;;;;-147.17;100.00;-15917.19;4949166;28;52681;-34
2023/04/28 08:14:26;;;;;;;;;6.00;5.33;;;;;-147.17;100.00;-15917.19;4952022;28;51176;-32
2023/04/28 08:16:52;;;;;;;;;5.00;4.33;;;;;-147.17;100.00;-15917.19;4951935;28;51095;-34
2023/04/28 08:19:18;;;;;;;;;5.00;4.00;;;;;-147.17;100.00;-15917.19;4952168;28;51366;-33
2023/04/28 08:21:43;;;;;;;;;5.00;5.00;;;;;-147.17;100.00;-15917.19;4952092;28;51855;-33
2023/04/28 08:24:09;;;;;;;;;4.67;3.00;;;;;-147.17;100.00;-15917.19;4934690;28;51241;-31
2023/04/28 08:26:36;;;;;;;;;4.00;4.00;;;;;-147.17;100.00;-15917.19;4952646;28;51045;-32
2023/04/28 08:29:01;;;;;;;;;4.00;4.00;;;;;-147.17;100.00;-15917.19;4935044;28;51276;-32
2023/04/28 08:31:26;;;;;;;;;3.00;3.00;;;;;-147.17;100.00;-15917.19;4951719;28;52018;-31
2023/04/28 08:33:52;;;;;;;;;4.00;3.00;;;;;-147.17;100.00;-15917.19;4951706;28;51040;-30
2023/04/28 08:36:17;;;;;;;;;2.33;2.00;;;;;-147.17;100.00;-15917.19;4951836;28;51028;-30
2023/04/28 08:38:44;;;;;;;;;4.00;4.00;;;;;-147.17;100.00;-15917.19;4950059;28;51248;-31
2023/04/28 08:41:13;;;;;;;;;2.00;2.00;;;;;-147.17;100.00;-15917.19;4941642;28;52161;-31
2023/04/28 08:43:41;;;;;;;;;3.00;3.00;;;;;-147.17;100.00;-15917.19;4952204;28;51051;-35
2023/04/28 08:46:07;;;;;;;;;2.00;2.00;;;;;-147.17;100.00;-15917.19;4952146;28;51268;-34
2023/04/28 08:48:41;;;;;;;;;1.00;1.00;;;;;-147.17;100.00;-15917.19;4952282;28;51120;-32
2023/04/28 08:51:07;;;;;;;;;2.00;2.00;;;;;-147.17;100.00;-15917.19;4951626;28;51783;-32
2023/04/28 08:53:36;;;;;;;;;3.00;2.33;;;;;-147.17;100.00;-15917.19;4951623;28;51554;-32
2023/04/28 08:56:04;;;;;;;;;2.00;2.00;;;;;-147.17;100.00;-15917.19;4951801;28;51215;-30
2023/04/28 08:58:30;;;;;;;;;3.00;3.00;;;;;-147.17;100.00;-15917.19;4951901;28;51147;-31
2023/04/28 09:00:55;;;;;;;;;3.00;2.67;;;;;-147.17;100.00;-15917.19;4951534;28;51760;-31
2023/04/28 09:03:20;;;;;;;;;2.00;2.00;;;;;-147.17;100.00;-15917.19;4951444;28;51010;-34
2023/04/28 09:05:46;;;;;;;;;1.67;1.67;;;;;-147.17;100.00;-15917.19;4951460;28;50994;-29
2023/04/28 09:08:12;;;;;;;;;2.33;2.00;;;;;-147.17;100.00;-15917.19;4951640;28;51182;-30
2023/04/28 09:10:37;;;;;;;;;2.00;1.00;;;;;-147.17;100.00;-15917.19;4954571;28;51761;-31
2023/04/28 09:13:03;;;;;;;;;2.00;2.00;;;;;-147.17;100.00;-15917.19;4954458;28;51171;-31
2023/04/28 09:15:40;;;;;;;;;3.00;2.67;;;;;-147.17;100.00;-15917.19;4954855;28;51204;-33
2023/04/28 09:18:06;;;;;;;;;3.67;2.67;;;;;-147.17;100.00;-15917.19;4955228;28;51157;-33
2023/04/28 09:20:34;;;;;;;;;3.00;3.00;;;;;-147.17;100.00;-15917.19;4954720;28;53012;-30
2023/04/28 09:23:19;;;;;;;;;2.00;2.00;;;;;-147.17;100.00;-15917.19;4955099;28;51011;-33
2023/04/28 09:26:06;;;;;;;;;4.00;3.00;;;;;-147.17;100.00;-15917.19;4954206;28;51120;-30
2023/04/28 09:28:33;;;;;;;;;4.00;3.00;;;;;-147.17;100.00;-15917.19;4954850;28;51275;-30
2023/04/28 09:30:58;;;;;;;;;6.00;5.00;;;;;-147.17;100.00;-15917.19;4953705;28;52040;-32
2023/04/28 09:33:24;;;;;;;;;4.00;3.33;;;;;-147.17;100.00;-15917.19;4954301;28;50913;-33
2023/04/28 09:35:50;;;;;;;;;4.00;4.00;;;;;-147.17;100.00;-15917.19;4950195;28;51206;-30
2023/04/28 09:38:16;;;;;;;;;5.00;3.67;;;;;-147.17;100.00;-15917.19;4954326;28;50872;-35
2023/04/28 09:41:01;;;;;;;;;3.00;3.00;;;;;-147.17;100.00;-15917.19;4953550;28;51009;-30
2023/04/28 09:43:33;;;;;;;;;4.00;4.00;;;;;-147.17;100.00;-15917.19;4954206;28;51085;-32
2023/04/28 09:46:03;;;;;;;;;3.00;3.00;;;;;-147.17;100.00;-15917.19;4954232;28;51002;-32
2023/04/28 09:48:33;;;;;;;;;4.00;3.00;;;;;-147.17;100.00;-15917.19;4954086;28;51031;-32
2023/04/28 09:51:01;;;;;;;;;4.33;4.00;;;;;-147.17;100.00;-15917.19;4952955;28;52000;-32
2023/04/28 09:53:27;;;;;;;;;3.33;3.00;;;;;-147.17;100.00;-15917.19;4954493;28;51127;-31
2023/04/28 09:55:54;;;;;;;;;2.33;2.00;;;;;-147.17;100.00;-15917.19;4954030;28;50904;-32
2023/04/28 09:58:21;;;;;;;;;3.00;3.00;;;;;-147.17;100.00;-15917.19;4953462;28;51239;-31
2023/04/28 10:00:54;;;;;;;;;5.00;5.00;;;;;-147.17;100.00;-15917.19;4953603;28;51849;-30
2023/04/28 10:03:22;;;;;;;;;5.00;4.00;;;;;-147.17;100.00;-15917.19;4953713;28;51091;-33
2023/04/28 10:05:48;;;;;;;;;4.00;4.00;;;;;-147.17;100.00;-15917.19;4953549;28;51034;-32
2023/04/28 10:08:14;;;;;;;;;4.00;3.33;;;;;-147.17;100.00;-15917.19;4954076;28;51316;-33
2023/04/28 10:10:41;;;;;;;;;3.67;3.00;;;;;-147.17;100.00;-15917.19;4953683;28;50916;-31
2023/04/28 10:13:07;;;;;;;;;9.33;8.33;;;;;-147.17;100.00;-15917.19;4949619;28;50939;-32
2023/04/28 10:15:34;;;;;;;;;10.00;9.00;;;;;-147.17;100.00;-15917.19;4953474;28;51187;-39
2023/04/28 10:18:01;;;;;;;;;9.33;9.00;;;;;-147.17;100.00;-15917.19;4953763;28;50898;-39
2023/04/28 10:20:28;;;;;;;;;12.33;12.33;;;;;-147.17;100.00;-15917.19;4952927;28;51137;-39
2023/04/28 10:23:19;;;;;;;;;16.00;15.33;;;;;-147.17;100.00;-15917.19;4946012;28;51045;-38
2023/04/28 10:25:48;;;;;;;;;16.75;16.25;;;;;-147.17;100.00;-15917.19;4953432;28;50948;-38
2023/04/28 10:28:15;;;;;;;;;11.67;11.00;;;;;-147.17;100.00;-15917.19;4953702;28;50862;-36
2023/04/28 10:30:41;;;;;;;;;11.67;11.67;;;;;-147.17;100.00;-15917.19;4953311;28;50993;-37
2023/04/28 10:33:12;;;;;;;;;10.00;9.00;;;;;-147.17;100.00;-15917.19;4953496;28;50920;-36
2023/04/28 10:35:39;;;;;;;;;9.67;9.33;;;;;-147.17;100.00;-15917.19;4953473;28;50967;-37
2023/04/28 10:38:07;;;;;;;;;8.00;7.33;;;;;-147.17;100.00;-15917.19;4953685;28;50947;-37
2023/04/28 10:40:45;;;;;;;;;6.67;6.67;;;;;-147.17;100.00;-15917.19;4952525;28;51955;-36
2023/04/28 10:43:12;;;;;;;;;7.00;7.00;;;;;-147.17;100.00;-15917.19;4953129;28;51064;-37
2023/04/28 10:45:52;;;;;;;;;5.33;4.67;;;;;-147.17;100.00;-15917.19;4953498;28;51127;-37
2023/04/28 10:48:47;;;;;;;;;7.67;6.67;;;;;-147.17;100.00;-15917.19;4953694;28;51259;-37
2023/04/28 10:51:15;;;;;;;;;5.33;4.33;;;;;-147.17;100.00;-15917.19;4946098;28;51235;-38
2023/04/28 10:53:43;;;;;;;;;5.00;4.00;;;;;-147.17;100.00;-15917.19;4953052;28;51054;-35
2023/04/28 10:56:29;;;;;;;;;4.67;4.00;;;;;-147.17;100.00;-15917.19;4952918;28;50921;-38
2023/04/28 10:58:56;;;;;;;;;3.00;3.00;;;;;-147.17;100.00;-15917.19;4953310;28;51074;-37